Terminal Aerodrome Forecast
Issued by NWS

Home | Current Version | Previous Version | Text Only | Print | Product List | Glossary On
Versions: 1 2 3 4 5 6 7 8 9 10 11 12 13 14 15
000
FTUS44 KLZK 260539
TAFHOT
TAF
KHOT 260539Z 2606/2706 13006KT P6SM SCT250
     FM261300 18008KT P6SM BKN025
     FM261700 22012G22KT P6SM BKN035
     FM270000 22007KT P6SM OVC080=

USA.gov is the U.S. government's official web portal to all federal, state and local government web resources and services.